createdAt,value
2023-04-19T00:00:12.217Z,8.97
2023-04-19T00:02:40.414Z,8.96
2023-04-19T00:05:08.650Z,8.96
2023-04-19T00:07:35.385Z,8.95
2023-04-19T00:10:01.880Z,9.02
2023-04-19T00:12:28.366Z,9.03
2023-04-19T00:14:54.765Z,9.04
2023-04-19T00:17:21.263Z,9.02
2023-04-19T00:19:47.936Z,9.02
2023-04-19T00:22:14.359Z,9.02
2023-04-19T00:24:40.799Z,9.00
2023-04-19T00:27:07.274Z,9.03
2023-04-19T00:29:33.749Z,9.03
2023-04-19T00:32:00.175Z,9.03
2023-04-19T00:34:26.648Z,9.05
2023-04-19T00:36:56.333Z,9.01
2023-04-19T00:39:22.713Z,9.01
2023-04-19T00:41:49.180Z,8.79
2023-04-19T00:44:18.269Z,8.95
2023-04-19T00:46:45.391Z,8.92
2023-04-19T00:49:11.981Z,8.89
2023-04-19T00:51:38.500Z,8.92
2023-04-19T00:54:06.519Z,8.93
2023-04-19T00:56:34.342Z,8.93
2023-04-19T00:59:01.247Z,8.93
2023-04-19T01:01:28.809Z,8.93
2023-04-19T01:03:55.549Z,8.95
2023-04-19T01:06:22.130Z,8.95
2023-04-19T01:08:48.524Z,8.95
2023-04-19T01:11:14.916Z,8.93
2023-04-19T01:13:44.286Z,8.92
2023-04-19T01:16:11.147Z,8.92
2023-04-19T01:18:39.343Z,8.91
2023-04-19T01:21:06.823Z,8.93
2023-04-19T01:23:33.455Z,8.93
2023-04-19T01:26:01.590Z,8.92
2023-04-19T01:28:28.606Z,8.91
2023-04-19T01:30:55.167Z,8.90
2023-04-19T01:33:22.418Z,8.90
2023-04-19T01:35:49.099Z,8.88
2023-04-19T01:38:16.511Z,8.87
2023-04-19T01:40:43.385Z,8.93
2023-04-19T01:43:13.732Z,8.94
2023-04-19T01:45:40.332Z,8.92
2023-04-19T01:48:07.172Z,8.89
2023-04-19T01:50:34.369Z,8.93
2023-04-19T01:53:01.230Z,8.89
2023-04-19T01:55:29.531Z,8.91
2023-04-19T01:57:56.079Z,8.90
2023-04-19T02:00:23.220Z,8.88
2023-04-19T02:02:49.858Z,8.88
2023-04-19T02:05:16.487Z,8.89
2023-04-19T02:07:42.906Z,8.90
2023-04-19T02:10:11.461Z,8.90
2023-04-19T02:12:38.040Z,8.87
2023-04-19T02:15:04.996Z,8.85
2023-04-19T02:17:34.051Z,8.81
2023-04-19T02:20:00.572Z,8.80
2023-04-19T02:22:27.015Z,8.79
2023-04-19T02:24:53.811Z,8.78
2023-04-19T02:27:26.769Z,8.74
2023-04-19T02:29:54.199Z,8.71
2023-04-19T02:32:20.728Z,8.71
2023-04-19T02:34:47.201Z,8.71
2023-04-19T02:37:13.752Z,8.67
2023-04-19T02:39:42.516Z,8.64
2023-04-19T02:42:08.951Z,8.63
2023-04-19T02:44:35.450Z,8.65
2023-04-19T02:47:01.887Z,8.64
2023-04-19T02:49:33.090Z,8.65
2023-04-19T02:52:00.134Z,8.67
2023-04-19T02:54:26.726Z,8.67
2023-04-19T02:56:53.484Z,8.70
2023-04-19T02:59:20.008Z,8.70
2023-04-19T03:01:46.860Z,8.70
2023-04-19T03:04:13.623Z,8.67
2023-04-19T03:06:42.105Z,8.66
2023-04-19T03:09:08.589Z,8.64
2023-04-19T03:11:37.055Z,8.64
2023-04-19T03:14:03.690Z,8.67
2023-04-19T03:16:30.354Z,8.64
2023-04-19T03:18:57.706Z,8.63
2023-04-19T03:21:29.157Z,8.64
2023-04-19T03:23:56.138Z,8.64
2023-04-19T03:26:24.558Z,8.62
2023-04-19T03:28:53.325Z,8.60
2023-04-19T03:31:38.313Z,8.55
2023-04-19T03:34:05.284Z,8.57
2023-04-19T03:36:39.612Z,8.57
2023-04-19T03:39:07.064Z,8.55
2023-04-19T03:41:35.692Z,8.53
2023-04-19T03:44:09.634Z,8.54
2023-04-19T03:46:37.411Z,8.52
2023-04-19T03:49:04.131Z,8.54
2023-04-19T03:51:31.523Z,8.52
2023-04-19T03:53:58.002Z,8.52
2023-04-19T03:56:24.755Z,8.47
2023-04-19T03:58:52.261Z,8.47
2023-04-19T04:01:19.969Z,8.49
2023-04-19T04:03:46.833Z,8.48
2023-04-19T04:06:13.480Z,8.47
2023-04-19T04:08:40.049Z,8.50
2023-04-19T04:11:06.481Z,8.49
2023-04-19T04:13:33.139Z,8.45
2023-04-19T04:16:13.681Z,8.40
2023-04-19T04:18:40.452Z,8.32
2023-04-19T04:21:10.174Z,8.27
2023-04-19T04:23:39.988Z,8.26
2023-04-19T04:26:11.061Z,8.24
2023-04-19T04:28:50.727Z,8.22
2023-04-19T04:31:19.015Z,8.22
2023-04-19T04:33:46.433Z,8.19
2023-04-19T04:36:15.353Z,8.22
2023-04-19T04:38:41.893Z,8.24
2023-04-19T04:41:08.721Z,8.22
2023-04-19T04:43:35.186Z,8.22
2023-04-19T04:46:01.874Z,8.20
2023-04-19T04:48:33.476Z,8.21
2023-04-19T04:50:59.903Z,8.20
2023-04-19T04:53:28.371Z,8.19
2023-04-19T04:55:55.189Z,8.21
2023-04-19T04:58:21.685Z,8.20
2023-04-19T05:00:59.269Z,8.18
2023-04-19T05:03:27.368Z,8.18
2023-04-19T05:05:57.726Z,8.15
2023-04-19T05:08:27.243Z,8.16
2023-04-19T05:10:58.612Z,8.16
2023-04-19T05:13:28.594Z,8.18
2023-04-19T05:15:55.494Z,8.21
2023-04-19T05:18:24.130Z,8.23
2023-04-19T05:20:50.656Z,8.23
2023-04-19T05:23:21.486Z,8.23
2023-04-19T05:25:49.840Z,8.22
2023-04-19T05:28:16.500Z,8.23
2023-04-19T05:30:55.545Z,8.25
2023-04-19T05:33:24.772Z,8.25
2023-04-19T05:35:54.419Z,8.24
2023-04-19T05:38:20.919Z,8.25
2023-04-19T05:40:48.998Z,8.27
2023-04-19T05:43:15.411Z,8.25
2023-04-19T05:45:42.372Z,8.23
2023-04-19T05:48:08.931Z,8.24
2023-04-19T05:51:01.269Z,8.29
2023-04-19T05:53:46.322Z,8.30
2023-04-19T05:56:13.057Z,8.30
2023-04-19T05:58:40.565Z,8.34
2023-04-19T06:01:07.936Z,8.36
2023-04-19T06:03:34.687Z,8.37
2023-04-19T06:06:01.690Z,8.37
2023-04-19T06:08:28.177Z,8.39
2023-04-19T06:13:23.855Z,8.41
2023-04-19T06:15:50.415Z,8.41
2023-04-19T06:18:18.891Z,8.42
2023-04-19T06:20:46.669Z,8.45
2023-04-19T06:23:14.687Z,8.47
2023-04-19T06:25:41.209Z,8.49
2023-04-19T06:28:07.665Z,8.52
2023-04-19T06:30:34.068Z,8.54
2023-04-19T06:33:00.595Z,8.58
2023-04-19T06:35:27.053Z,8.61
2023-04-19T06:37:53.512Z,8.64
2023-04-19T06:40:20.169Z,8.69
2023-04-19T06:42:46.557Z,8.75
2023-04-19T06:45:13.114Z,8.74
2023-04-19T06:47:39.516Z,8.73
2023-04-19T06:50:06.720Z,8.70
2023-04-19T06:52:33.135Z,8.72
2023-04-19T06:54:59.611Z,8.79
2023-04-19T06:57:26.078Z,8.85
2023-04-19T06:59:55.490Z,8.87
2023-04-19T07:02:22.097Z,8.88
2023-04-19T07:04:48.703Z,8.93
2023-04-19T07:07:15.595Z,8.96
2023-04-19T07:09:42.190Z,8.94
2023-04-19T07:12:08.736Z,8.89
2023-04-19T07:14:35.185Z,8.95
2023-04-19T07:17:01.593Z,9.03
2023-04-19T07:19:29.035Z,9.08
2023-04-19T07:21:55.596Z,9.13
2023-04-19T07:24:22.181Z,9.21
2023-04-19T07:26:48.599Z,9.25
2023-04-19T07:29:15.050Z,9.30
2023-04-19T07:31:42.114Z,9.36
2023-04-19T07:34:08.947Z,9.44
2023-04-19T07:36:36.948Z,9.49
2023-04-19T07:39:04.755Z,9.55
2023-04-19T07:41:32.356Z,9.60
2023-04-19T07:43:58.760Z,9.74
2023-04-19T07:46:25.295Z,9.85
2023-04-19T07:48:51.999Z,10.01
2023-04-19T07:51:19.359Z,10.09
2023-04-19T07:53:47.416Z,10.07
2023-04-19T07:56:15.316Z,10.04
2023-04-19T07:58:41.851Z,10.06
2023-04-19T08:01:08.735Z,10.07
2023-04-19T08:03:36.492Z,10.07
2023-04-19T08:06:09.697Z,10.04
2023-04-19T08:08:36.807Z,10.03
2023-04-19T08:11:04.837Z,10.04
2023-04-19T08:13:31.257Z,10.12
2023-04-19T08:18:27.264Z,10.19
2023-04-19T08:20:53.901Z,10.60
2023-04-19T08:23:25.791Z,10.83
2023-04-19T08:25:56.088Z,11.09
2023-04-19T08:28:23.076Z,11.42
2023-04-19T08:30:49.469Z,11.68
2023-04-19T08:33:15.987Z,11.81
2023-04-19T08:35:42.534Z,11.77
2023-04-19T08:38:09.241Z,11.70
2023-04-19T08:40:41.431Z,11.67
2023-04-19T08:43:07.969Z,11.61
2023-04-19T08:45:35.345Z,11.55
2023-04-19T08:48:02.769Z,11.53
2023-04-19T08:50:38.792Z,11.60
2023-04-19T08:55:59.244Z,11.46
2023-04-19T08:58:41.326Z,11.36
2023-04-19T09:04:02.509Z,11.31
2023-04-19T09:06:40.616Z,11.44
2023-04-19T09:09:34.172Z,11.58
2023-04-19T09:12:02.560Z,11.72
2023-04-19T09:14:29.180Z,11.82
2023-04-19T09:17:13.451Z,11.97
2023-04-19T09:19:47.730Z,12.03
2023-04-19T09:22:14.699Z,12.07
2023-04-19T09:27:12.110Z,12.30
2023-04-19T09:29:38.768Z,12.40
2023-04-19T09:32:06.053Z,12.48
2023-04-19T09:34:32.484Z,12.57
2023-04-19T09:37:20.824Z,12.65
2023-04-19T09:39:59.038Z,12.76
2023-04-19T09:43:05.279Z,12.72
2023-04-19T09:45:45.205Z,12.65
2023-04-19T09:48:13.346Z,12.50
2023-04-19T09:51:02.748Z,12.41
2023-04-19T09:53:34.263Z,12.31
2023-04-19T09:56:03.100Z,12.26
2023-04-19T09:58:46.194Z,12.16
2023-04-19T10:01:18.687Z,12.04
2023-04-19T10:03:49.061Z,12.01
2023-04-19T10:06:40.162Z,11.88
2023-04-19T10:09:04.822Z,11.77
2023-04-19T10:11:38.741Z,11.59
2023-04-19T10:14:10.051Z,11.63
2023-04-19T10:16:38.865Z,11.56
2023-04-19T10:19:11.269Z,11.45
2023-04-19T10:21:38.478Z,11.42
2023-04-19T10:24:05.811Z,11.36
2023-04-19T10:27:06.938Z,11.30
2023-04-19T10:29:51.409Z,11.23
2023-04-19T10:32:17.953Z,11.17
2023-04-19T10:34:46.410Z,11.06
2023-04-19T10:37:16.554Z,11.01
2023-04-19T10:39:44.646Z,11.00
2023-04-19T10:42:11.227Z,10.99
2023-04-19T10:44:37.622Z,11.05
2023-04-19T10:47:05.913Z,11.07
2023-04-19T10:49:45.590Z,11.10
2023-04-19T10:52:29.457Z,11.09
2023-04-19T10:54:56.887Z,11.09
2023-04-19T10:57:25.221Z,11.09
2023-04-19T11:00:25.651Z,11.07
2023-04-19T11:02:52.260Z,11.09
2023-04-19T11:05:20.293Z,11.13
2023-04-19T11:07:46.841Z,11.20
2023-04-19T11:10:13.437Z,11.21
2023-04-19T11:12:43.778Z,11.17
2023-04-19T11:15:11.780Z,11.08
2023-04-19T11:17:39.516Z,11.01
2023-04-19T11:20:10.147Z,11.01
2023-04-19T11:22:41.878Z,10.95
2023-04-19T11:25:12.584Z,10.96
2023-04-19T11:27:41.049Z,10.97
2023-04-19T11:30:11.465Z,10.96
2023-04-19T11:32:39.015Z,10.88
2023-04-19T11:35:07.936Z,10.83
2023-04-19T11:37:36.441Z,10.77
2023-04-19T11:40:05.402Z,10.65
2023-04-19T11:42:33.147Z,10.57
2023-04-19T11:44:59.899Z,10.48
2023-04-19T11:47:27.134Z,10.37
2023-04-19T11:49:55.201Z,10.28
2023-04-19T11:52:26.246Z,10.22
2023-04-19T11:54:53.856Z,10.18
2023-04-19T11:57:32.255Z,10.14
2023-04-19T12:00:12.506Z,10.07
2023-04-19T12:02:40.861Z,9.99
2023-04-19T12:05:16.430Z,9.98
2023-04-19T12:08:03.620Z,9.97
2023-04-19T12:10:33.468Z,9.99
2023-04-19T12:13:00.074Z,9.99
2023-04-19T12:15:42.931Z,10.00
2023-04-19T12:18:09.521Z,9.99
2023-04-19T12:20:37.593Z,10.00
2023-04-19T12:23:04.561Z,10.05
2023-04-19T12:25:33.123Z,10.09
2023-04-19T12:28:04.120Z,10.09
2023-04-19T12:30:30.727Z,10.04
2023-04-19T12:32:58.840Z,10.01
2023-04-19T12:35:29.678Z,9.96
2023-04-19T12:37:57.896Z,9.90
2023-04-19T12:40:26.277Z,9.87
2023-04-19T12:42:53.823Z,9.84
2023-04-19T12:45:21.119Z,9.80
2023-04-19T12:47:49.182Z,9.71
2023-04-19T12:50:16.403Z,9.52
2023-04-19T12:52:44.431Z,9.44
2023-04-19T12:55:10.956Z,9.36
2023-04-19T12:57:37.381Z,9.28
2023-04-19T13:00:06.042Z,9.26
2023-04-19T13:02:34.340Z,9.23
2023-04-19T13:05:00.933Z,9.21
2023-04-19T13:07:28.494Z,9.20
2023-04-19T13:09:56.539Z,9.09
2023-04-19T13:12:23.894Z,9.01
2023-04-19T13:14:52.120Z,8.96
2023-04-19T13:17:20.074Z,8.89
2023-04-19T13:19:47.351Z,8.83
2023-04-19T13:22:14.128Z,8.78
2023-04-19T13:24:40.621Z,8.87
2023-04-19T13:27:08.699Z,8.95
2023-04-19T13:29:35.690Z,9.01
2023-04-19T13:32:02.478Z,9.03
2023-04-19T13:34:29.193Z,8.97
2023-04-19T13:36:55.831Z,8.87
2023-04-19T13:39:22.445Z,8.83
2023-04-19T13:41:48.881Z,8.80
2023-04-19T13:44:15.741Z,8.82
2023-04-19T13:46:42.475Z,8.82
2023-04-19T13:49:09.056Z,8.89
2023-04-19T13:51:48.829Z,8.86
2023-04-19T13:54:20.625Z,8.82
2023-04-19T13:56:49.790Z,8.72
2023-04-19T13:59:17.146Z,8.78
2023-04-19T14:01:43.592Z,8.75
2023-04-19T14:04:10.294Z,8.68
2023-04-19T14:06:37.079Z,8.67
2023-04-19T14:09:03.577Z,8.71
2023-04-19T14:11:30.361Z,8.75
2023-04-19T14:13:56.865Z,8.75
2023-04-19T14:16:25.196Z,8.75
2023-04-19T14:18:52.419Z,8.78
2023-04-19T14:21:19.068Z,8.76
2023-04-19T14:23:45.456Z,8.84
2023-04-19T14:26:11.939Z,8.82
2023-04-19T14:28:38.356Z,8.81
2023-04-19T14:31:04.883Z,8.78
2023-04-19T14:33:31.797Z,8.78
2023-04-19T14:35:58.338Z,8.81
2023-04-19T14:38:24.794Z,8.82
2023-04-19T14:40:51.252Z,8.82
2023-04-19T14:43:17.910Z,8.82
2023-04-19T14:45:44.394Z,8.79
2023-04-19T14:48:10.940Z,8.81
2023-04-19T14:50:37.462Z,8.83
2023-04-19T14:53:03.895Z,8.86
2023-04-19T14:55:30.364Z,8.82
2023-04-19T14:57:56.767Z,8.91
2023-04-19T15:00:23.226Z,8.95
2023-04-19T15:02:49.831Z,8.94
2023-04-19T15:05:17.058Z,8.88
2023-04-19T15:07:43.761Z,8.87
2023-04-19T15:10:10.441Z,8.85
2023-04-19T15:12:36.876Z,8.89
2023-04-19T15:15:03.673Z,8.92
2023-04-19T15:17:30.331Z,8.94
2023-04-19T15:19:56.861Z,8.93
2023-04-19T15:22:23.333Z,8.93
2023-04-19T15:24:49.860Z,8.95
2023-04-19T15:27:16.256Z,9.01
2023-04-19T15:29:42.760Z,9.01
2023-04-19T15:32:09.194Z,9.02
2023-04-19T15:34:36.052Z,9.04
2023-04-19T15:37:05.816Z,9.08
2023-04-19T15:39:32.337Z,9.13
2023-04-19T15:41:58.822Z,9.22
2023-04-19T15:44:25.343Z,9.30
2023-04-19T15:46:51.842Z,9.37
2023-04-19T15:49:18.479Z,9.43
2023-04-19T15:51:45.436Z,9.50
2023-04-19T15:54:14.241Z,9.60
2023-04-19T15:56:40.839Z,9.66
2023-04-19T15:59:07.253Z,9.73
2023-04-19T16:01:33.751Z,9.74
2023-04-19T16:04:00.322Z,9.78
2023-04-19T16:06:27.301Z,9.80
2023-04-19T16:08:53.740Z,9.85
2023-04-19T16:11:20.210Z,9.92
2023-04-19T16:13:46.707Z,10.00
2023-04-19T16:16:13.186Z,10.03
2023-04-19T16:18:39.587Z,10.06
2023-04-19T16:21:06.058Z,10.14
2023-04-19T16:23:32.512Z,10.24
2023-04-19T16:25:58.920Z,10.40
2023-04-19T16:28:25.329Z,10.45
2023-04-19T16:30:51.748Z,10.45
2023-04-19T16:33:18.197Z,10.50
2023-04-19T16:35:45.162Z,10.62
2023-04-19T16:38:11.561Z,10.61
2023-04-19T16:40:37.960Z,10.47
2023-04-19T16:43:06.177Z,10.41
2023-04-19T16:45:32.605Z,10.33
2023-04-19T16:47:59.153Z,10.22
2023-04-19T16:50:25.648Z,10.16
2023-04-19T16:52:52.065Z,10.00
2023-04-19T16:55:18.626Z,9.89
2023-04-19T16:57:45.016Z,9.81
2023-04-19T17:00:13.185Z,9.81
2023-04-19T17:02:39.674Z,9.80
2023-04-19T17:05:06.907Z,9.70
2023-04-19T17:07:33.551Z,9.68
2023-04-19T17:10:00.037Z,9.66
2023-04-19T17:12:26.579Z,9.63
2023-04-19T17:14:52.987Z,9.67
2023-04-19T17:17:20.035Z,9.67
2023-04-19T17:19:46.971Z,9.63
2023-04-19T17:22:16.226Z,9.59
2023-04-19T17:24:42.881Z,9.55
2023-04-19T17:27:09.457Z,9.49
2023-04-19T17:29:36.099Z,9.43
2023-04-19T17:32:02.568Z,9.35
2023-04-19T17:34:29.004Z,9.23
2023-04-19T17:36:55.455Z,9.15
2023-04-19T17:39:21.875Z,9.10
2023-04-19T17:41:49.795Z,9.01
2023-04-19T17:44:16.172Z,8.94
2023-04-19T17:46:42.623Z,8.83
2023-04-19T17:49:09.184Z,8.80
2023-04-19T17:51:35.650Z,8.77
2023-04-19T17:54:02.114Z,8.72
2023-04-19T17:56:28.550Z,8.68
2023-04-19T17:58:55.155Z,8.61
2023-04-19T18:01:21.633Z,8.54
2023-04-19T18:03:48.192Z,8.51
2023-04-19T18:06:16.338Z,8.44
2023-04-19T18:08:46.085Z,8.35
2023-04-19T18:11:12.707Z,8.27
2023-04-19T18:13:39.136Z,8.23
2023-04-19T18:16:05.728Z,8.17
2023-04-19T18:18:32.355Z,8.09
2023-04-19T18:20:59.778Z,7.98
2023-04-19T18:23:26.179Z,7.91
2023-04-19T18:25:54.262Z,7.86
2023-04-19T18:28:21.152Z,7.84
2023-04-19T18:30:47.941Z,7.82
2023-04-19T18:33:14.332Z,7.76
2023-04-19T18:35:41.079Z,7.69
2023-04-19T18:38:07.525Z,7.64
2023-04-19T18:40:33.889Z,7.61
2023-04-19T18:43:00.566Z,7.53
2023-04-19T18:45:28.826Z,7.48
2023-04-19T18:47:55.464Z,7.47
2023-04-19T18:50:21.927Z,7.47
2023-04-19T18:52:48.325Z,7.43
2023-04-19T18:55:15.940Z,7.39
2023-04-19T18:57:42.533Z,7.34
2023-04-19T19:00:12.094Z,7.31
2023-04-19T19:02:40.692Z,7.29
2023-04-19T19:05:08.662Z,7.28
2023-04-19T19:07:37.118Z,7.24
2023-04-19T19:10:17.302Z,7.22
2023-04-19T19:12:45.492Z,7.15
2023-04-19T19:15:12.113Z,7.12
2023-04-19T19:17:38.644Z,7.07
2023-04-19T19:20:06.676Z,7.04
2023-04-19T19:22:34.093Z,6.99
2023-04-19T19:25:01.101Z,6.94
2023-04-19T19:27:27.660Z,6.92
2023-04-19T19:29:54.193Z,6.91
2023-04-19T19:32:20.795Z,6.87
2023-04-19T19:34:55.647Z,6.85
2023-04-19T19:37:27.409Z,6.82
2023-04-19T19:39:56.182Z,6.73
2023-04-19T19:42:23.577Z,6.69
2023-04-19T19:44:54.153Z,6.61
2023-04-19T19:47:20.918Z,6.57
2023-04-19T19:50:17.504Z,6.52
2023-04-19T19:52:34.060Z,6.48
2023-04-19T19:55:01.120Z,6.47
2023-04-19T20:00:12.968Z,6.45
2023-04-19T20:02:54.720Z,6.46
2023-04-19T20:05:23.089Z,6.44
2023-04-19T20:10:19.820Z,6.43
2023-04-19T20:12:47.127Z,6.43
2023-04-19T20:15:14.011Z,6.45
2023-04-19T20:17:40.702Z,6.44
2023-04-19T20:20:08.906Z,6.40
2023-04-19T20:22:35.795Z,6.35
2023-04-19T20:25:02.270Z,6.30
2023-04-19T20:27:28.905Z,6.28
2023-04-19T20:29:56.710Z,6.26
2023-04-19T20:32:23.602Z,6.23
2023-04-19T20:34:50.824Z,6.20
2023-04-19T20:37:18.198Z,6.17
2023-04-19T20:39:44.652Z,6.13
2023-04-19T20:42:11.101Z,6.08
2023-04-19T20:44:37.494Z,6.05
2023-04-19T20:47:03.926Z,6.05
2023-04-19T20:49:30.361Z,6.07
2023-04-19T20:51:56.753Z,6.06
2023-04-19T20:54:23.173Z,6.03
2023-04-19T20:56:49.582Z,5.99
2023-04-19T20:59:16.263Z,6.00
2023-04-19T21:01:43.118Z,5.98
2023-04-19T21:04:09.781Z,5.96
2023-04-19T21:06:36.347Z,5.97
2023-04-19T21:09:02.813Z,5.95
2023-04-19T21:11:29.188Z,5.91
2023-04-19T21:13:55.602Z,5.94
2023-04-19T21:16:22.067Z,5.91
2023-04-19T21:18:48.675Z,5.88
2023-04-19T21:21:15.148Z,5.86
2023-04-19T21:23:41.541Z,5.79
2023-04-19T21:26:09.486Z,5.75
2023-04-19T21:28:36.113Z,5.72
2023-04-19T21:31:02.857Z,5.72
2023-04-19T21:33:29.338Z,5.72
2023-04-19T21:35:55.844Z,5.71
2023-04-19T21:38:22.246Z,5.65
2023-04-19T21:40:49.383Z,5.61
2023-04-19T21:43:16.924Z,5.57
2023-04-19T21:45:43.447Z,5.55
2023-04-19T21:48:09.944Z,5.53
2023-04-19T21:50:36.368Z,5.52
2023-04-19T21:53:02.759Z,5.50
2023-04-19T21:55:29.272Z,5.48
2023-04-19T21:57:55.670Z,5.42
2023-04-19T22:00:22.892Z,5.41
2023-04-19T22:02:49.531Z,5.42
2023-04-19T22:05:16.666Z,5.41
2023-04-19T22:07:43.163Z,5.42
2023-04-19T22:10:09.611Z,5.43
2023-04-19T22:12:40.600Z,5.42
2023-04-19T22:15:11.776Z,5.41
2023-04-19T22:17:38.428Z,5.41
2023-04-19T22:20:09.081Z,5.39
2023-04-19T22:22:35.623Z,5.36
2023-04-19T22:25:02.148Z,5.41
2023-04-19T22:27:28.561Z,5.41
2023-04-19T22:29:55.027Z,5.40
2023-04-19T22:32:21.567Z,5.39
2023-04-19T22:34:48.018Z,5.36
2023-04-19T22:37:14.520Z,5.33
2023-04-19T22:39:41.001Z,5.33
2023-04-19T22:42:07.489Z,5.27
2023-04-19T22:44:33.890Z,5.29
2023-04-19T22:47:00.359Z,5.26
2023-04-19T22:49:26.834Z,5.24
2023-04-19T22:51:54.690Z,5.20
2023-04-19T22:54:21.076Z,5.07
2023-04-19T22:56:47.488Z,5.03
2023-04-19T22:59:13.908Z,5.02
2023-04-19T23:01:40.491Z,4.99
2023-04-19T23:04:06.948Z,4.96
2023-04-19T23:06:33.731Z,4.94
2023-04-19T23:09:02.997Z,4.89
2023-04-19T23:11:29.861Z,4.86
2023-04-19T23:13:56.371Z,4.82
2023-04-19T23:16:24.384Z,4.72
2023-04-19T23:18:50.876Z,4.65
2023-04-19T23:21:17.304Z,4.61
2023-04-19T23:23:43.748Z,4.57
2023-04-19T23:26:10.284Z,4.50
2023-04-19T23:28:36.755Z,4.48
2023-04-19T23:31:03.189Z,4.46
2023-04-19T23:33:29.628Z,4.49
2023-04-19T23:35:56.101Z,4.51
2023-04-19T23:38:22.495Z,4.52
2023-04-19T23:40:48.908Z,4.56
2023-04-19T23:43:15.309Z,4.65
2023-04-19T23:45:41.699Z,4.71
2023-04-19T23:48:08.187Z,4.75
2023-04-19T23:50:34.614Z,4.81
2023-04-19T23:53:02.807Z,4.82
2023-04-19T23:55:29.204Z,4.82
2023-04-19T23:57:55.619Z,4.84
